Time;durP1;ratioP1;P1;durP2;ratioP2;P2;SDS_P1;SDS_P2;PMS_P1;PMS_P2;Temp;Humidity;BMP_temperature;BMP_pressure;BME280_temperature;BME280_humidity;BME280_pressure;Samples;Min_cycle;Max_cycle;Signal;HPM_P1;HPM_P2
2022/07/20 00:01:37;;;;;;;5.53;3.15;;;;;;;25.41;39.27;101128.41;5027457;28;20116;-61
2022/07/20 00:04:04;;;;;;;4.78;3.42;;;;;;;25.35;40.31;101123.25;5027399;28;20095;-61
2022/07/20 00:06:30;;;;;;;6.45;3.38;;;;;;;25.32;39.55;101127.78;5026316;28;20024;-61
2022/07/20 00:11:41;;;;;;;4.15;3.28;;;;;;;25.20;41.31;101128.97;5027502;28;20091;-61
2022/07/20 00:14:07;;;;;;;5.28;3.20;;;;;;;25.14;41.42;101128.22;5025883;28;20039;-61
2022/07/20 00:16:34;;;;;;;10.32;3.45;;;;;;;25.10;41.36;101129.19;5026133;28;20029;-61
2022/07/20 00:19:00;;;;;;;7.65;2.97;;;;;;;25.06;41.66;101132.81;5026078;28;20056;-61
2022/07/20 00:21:27;;;;;;;4.38;3.17;;;;;;;25.02;42.18;101128.53;5025603;28;20034;-61
2022/07/20 00:23:52;;;;;;;8.70;3.58;;;;;;;24.94;42.05;101124.28;5027335;28;20385;-61
2022/07/20 00:26:25;;;;;;;3.72;2.80;;;;;;;24.89;42.04;101134.09;5027950;28;20034;-60
2022/07/20 00:28:58;;;;;;;7.40;3.45;;;;;;;24.85;41.17;101136.81;5010011;28;20061;-61
2022/07/20 00:31:24;;;;;;;6.82;3.35;;;;;;;24.82;42.04;101135.13;5017524;28;20316;-61
2022/07/20 00:33:50;;;;;;;5.18;3.03;;;;;;;24.75;42.57;101130.88;5025891;28;20028;-62
2022/07/20 00:36:17;;;;;;;3.63;3.05;;;;;;;24.67;42.71;101126.63;5031217;28;20029;-62
2022/07/20 00:38:43;;;;;;;6.82;3.90;;;;;;;24.60;42.20;101130.31;5029708;28;20117;-62
2022/07/20 00:41:08;;;;;;;6.03;3.25;;;;;;;24.54;42.87;101128.69;5030536;28;20144;-62
2022/07/20 00:43:58;;;;;;;6.85;3.63;;;;;;;24.49;43.19;101127.91;5031435;28;20114;-62
2022/07/20 00:46:25;;;;;;;5.72;2.95;;;;;;;24.46;42.41;101131.50;5029643;28;20196;-62
2022/07/20 00:48:50;;;;;;;6.68;3.42;;;;;;;24.44;43.08;101173.03;5029571;28;20033;-62
2022/07/20 00:51:16;;;;;;;6.85;3.22;;;;;;;24.44;43.64;101190.69;5031453;28;20056;-62
2022/07/20 00:53:42;;;;;;;6.20;3.80;;;;;;;24.36;41.05;101137.88;5031026;28;20074;-62
2022/07/20 00:56:07;;;;;;;7.32;3.45;;;;;;;24.35;41.81;101136.16;5031189;28;20029;-62
2022/07/20 00:58:33;;;;;;;9.82;3.85;;;;;;;24.32;42.24;101134.44;5031513;28;20044;-62
2022/07/20 01:00:58;;;;;;;5.75;3.08;;;;;;;24.31;42.76;101145.06;5031505;28;20033;-62
2022/07/20 01:03:24;;;;;;;4.28;3.42;;;;;;;24.29;43.43;101170.69;5030844;28;20037;-62
2022/07/20 01:05:50;;;;;;;5.47;3.55;;;;;;;24.26;42.48;101152.22;5031167;28;20159;-62
2022/07/20 01:08:15;;;;;;;6.20;3.50;;;;;;;24.22;43.00;101162.88;5031223;28;20028;-62
2022/07/20 01:10:41;;;;;;;7.72;3.58;;;;;;;24.19;41.23;101160.31;5031464;28;20104;-61
2022/07/20 01:13:06;;;;;;;8.52;3.55;;;;;;;24.19;42.44;101178.84;5022213;28;20030;-61
2022/07/20 01:15:31;;;;;;;7.57;3.33;;;;;;;24.14;44.30;101162.13;5030831;28;20029;-62
2022/07/20 01:17:57;;;;;;;7.70;3.47;;;;;;;24.03;42.27;101157.06;5021363;28;20116;-61
2022/07/20 01:20:24;;;;;;;6.65;3.53;;;;;;;24.01;42.74;101152.69;5026397;28;20025;-61
2022/07/20 01:22:49;;;;;;;7.45;3.00;;;;;;;23.97;44.18;101165.13;5030897;28;20033;-61
2022/07/20 01:25:15;;;;;;;9.77;3.50;;;;;;;23.94;43.94;101168.72;5030981;28;20041;-61
2022/07/20 01:27:41;;;;;;;6.57;3.60;;;;;;;23.87;43.91;101154.69;5030223;28;20026;-62
2022/07/20 01:30:06;;;;;;;6.20;3.42;;;;;;;23.81;44.99;101164.53;5030539;28;20033;-61
2022/07/20 01:32:32;;;;;;;4.72;3.25;;;;;;;23.72;44.70;101163.81;5031349;28;20026;-61
2022/07/20 01:34:58;;;;;;;4.03;3.47;;;;;;;23.64;44.03;101155.13;5030831;28;20029;-62
2022/07/20 01:37:23;;;;;;;7.28;3.90;;;;;;;23.59;44.77;101151.69;5030707;28;20065;-61
2022/07/20 01:39:48;;;;;;;5.47;3.25;;;;;;;23.53;45.81;101154.47;5027921;28;20025;-61
2022/07/20 01:42:14;;;;;;;6.70;3.40;;;;;;;23.43;45.00;101157.25;5024044;28;20111;-62
2022/07/20 01:44:39;;;;;;;3.92;3.30;;;;;;;23.38;45.56;101145.84;5029965;28;20044;-61
2022/07/20 01:47:04;;;;;;;6.57;3.33;;;;;;;23.32;45.58;101143.31;5030343;28;20101;-61
2022/07/20 01:49:30;;;;;;;5.65;3.15;;;;;;;23.31;46.46;101146.84;5030158;28;20033;-61
2022/07/20 01:51:55;;;;;;;5.18;3.35;;;;;;;23.25;46.28;101150.47;5030015;28;20033;-62
2022/07/20 01:54:20;;;;;;;5.13;3.20;;;;;;;23.20;46.58;101145.28;5030946;28;20405;-61
2022/07/20 01:56:46;;;;;;;3.55;3.20;;;;;;;23.15;45.66;101144.47;5030220;28;20033;-61
2022/07/20 01:59:11;;;;;;;4.55;3.35;;;;;;;23.12;45.70;101148.03;5030394;28;20022;-61
2022/07/20 02:01:37;;;;;;;4.20;3.50;;;;;;;23.12;46.73;101158.59;5030437;28;20493;-61
2022/07/20 02:04:04;;;;;;;6.05;3.58;;;;;;;23.12;46.62;101158.59;5029531;28;20510;-61
2022/07/20 02:06:29;;;;;;;4.97;3.53;;;;;;;23.12;46.87;101153.31;5030112;28;20021;-61
2022/07/20 02:08:55;;;;;;;6.60;3.70;;;;;;;23.10;46.18;101165.66;5030296;28;20040;-61
2022/07/20 02:11:20;;;;;;;7.38;3.38;;;;;;;23.10;45.78;101164.78;5028895;28;20104;-61
2022/07/20 02:13:46;;;;;;;6.95;3.58;;;;;;;23.10;46.24;101172.72;5029994;28;20029;-61
2022/07/20 02:16:17;;;;;;;5.88;3.58;;;;;;;23.11;46.59;101190.34;5030308;28;20033;-61
2022/07/20 02:18:47;;;;;;;5.50;3.28;;;;;;;23.10;46.26;101194.75;5012002;28;20027;-61
2022/07/20 02:21:15;;;;;;;5.32;3.50;;;;;;;23.10;46.00;101192.09;5030044;28;20151;-61
2022/07/20 02:23:41;;;;;;;5.03;3.30;;;;;;;23.11;45.90;101203.56;5029800;28;20055;-61
2022/07/20 02:26:06;;;;;;;7.57;3.85;;;;;;;23.14;45.03;101193.81;5029661;28;20026;-61
2022/07/20 02:28:32;;;;;;;8.43;4.13;;;;;;;23.20;45.12;101202.53;5029312;28;20357;-61
2022/07/20 02:30:57;;;;;;;8.60;5.40;;;;;;;23.24;45.61;101194.53;5029752;28;20473;-61
2022/07/20 02:33:23;;;;;;;7.57;5.97;;;;;;;23.30;46.51;101197.97;5029605;28;20029;-61
2022/07/20 02:35:48;;;;;;;8.90;7.00;;;;;;;23.35;47.95;101196.16;5027365;28;20339;-61
2022/07/20 02:38:14;;;;;;;14.32;8.27;;;;;;;23.37;49.00;101196.97;5029385;28;20600;-60
2022/07/20 02:40:39;;;;;;;14.75;10.45;;;;;;;23.41;50.25;101196.03;5029174;28;20055;-61
2022/07/20 02:43:05;;;;;;;12.13;10.85;;;;;;;23.43;52.16;101191.63;5029337;28;20500;-61
2022/07/20 02:45:31;;;;;;;13.73;11.85;;;;;;;23.43;52.03;101204.84;5028860;28;20030;-61
2022/07/20 02:48:02;;;;;;;17.40;12.23;;;;;;;23.44;53.13;101206.56;5024305;28;20532;-61
2022/07/20 02:50:36;;;;;;;15.00;12.35;;;;;;;23.44;53.80;101211.88;5020948;28;20075;-61
2022/07/20 02:53:02;;;;;;;19.05;14.20;;;;;;;23.42;55.22;101202.22;5029462;28;20024;-61
2022/07/20 02:55:28;;;;;;;17.50;13.13;;;;;;;23.40;55.60;101207.50;5028791;28;20040;-60
2022/07/20 02:57:54;;;;;;;15.52;13.75;;;;;;;23.39;55.51;101204.00;5029629;28;20029;-60
2022/07/20 03:00:19;;;;;;;17.65;13.80;;;;;;;23.33;56.77;101205.88;5029362;28;20033;-61
2022/07/20 03:02:46;;;;;;;18.00;13.70;;;;;;;23.32;56.42;101201.47;5028649;28;20462;-61
2022/07/20 03:05:12;;;;;;;16.80;13.77;;;;;;;23.31;56.63;101205.00;5029085;28;20488;-59
2022/07/20 03:07:37;;;;;;;21.20;13.65;;;;;;;23.28;56.61;101213.84;5029233;28;20029;-61
2022/07/20 03:10:04;;;;;;;18.08;14.38;;;;;;;23.24;57.72;101215.66;5028983;28;20029;-60
2022/07/20 03:12:29;;;;;;;17.88;14.57;;;;;;;23.18;58.21;101221.06;5028707;28;20053;-60
2022/07/20 03:14:54;;;;;;;19.15;14.90;;;;;;;23.13;58.77;101212.34;5028763;28;20053;-60
2022/07/20 03:17:20;;;;;;;18.75;15.45;;;;;;;23.10;59.43;101212.34;5024755;28;20068;-61
2022/07/20 03:19:45;;;;;;;18.27;15.60;;;;;;;23.09;60.08;101202.69;5019871;28;20350;-60
2022/07/20 03:22:11;;;;;;;23.80;16.50;;;;;;;23.07;60.44;101210.66;5028883;28;20079;-60
2022/07/20 03:24:37;;;;;;;20.60;17.10;;;;;;;23.03;61.44;101212.47;5028698;28;20469;-61
2022/07/20 03:27:03;;;;;;;19.73;17.58;;;;;;;22.99;62.00;101225.75;5029066;28;20034;-61
2022/07/20 03:29:28;;;;;;;22.83;19.10;;;;;;;22.95;62.78;101230.19;5029047;28;20389;-61
2022/07/20 03:31:54;;;;;;;23.63;19.20;;;;;;;22.95;63.25;101235.47;5028560;28;20124;-61
2022/07/20 03:34:19;;;;;;;23.75;19.23;;;;;;;22.94;64.29;101244.28;5028681;28;20117;-60
2022/07/20 03:36:44;;;;;;;22.85;20.38;;;;;;;22.93;64.54;101252.25;5026260;28;20470;-60
2022/07/20 03:39:09;;;;;;;24.88;20.90;;;;;;;22.87;65.25;101253.19;5026971;28;20025;-60
2022/07/20 03:41:35;;;;;;;23.33;20.38;;;;;;;22.84;65.81;101266.44;5025464;28;20041;-60
2022/07/20 03:44:00;;;;;;;24.40;20.83;;;;;;;22.78;67.13;101260.34;5025930;28;20032;-60
2022/07/20 03:46:25;;;;;;;25.83;22.55;;;;;;;22.71;67.71;101269.25;5026123;28;20071;-61
2022/07/20 03:48:51;;;;;;;26.83;21.42;;;;;;;22.65;67.80;101264.00;5028451;28;20028;-61
2022/07/20 03:51:17;;;;;;;24.13;21.23;;;;;;;22.64;68.50;101272.84;5028351;28;20044;-61
2022/07/20 03:53:42;;;;;;;27.38;21.27;;;;;;;22.59;69.22;101285.19;5028900;28;20049;-61
2022/07/20 03:56:07;;;;;;;25.73;22.38;;;;;;;22.56;69.43;101286.09;5028372;28;20025;-61
2022/07/20 03:58:33;;;;;;;26.23;22.33;;;;;;;22.53;69.66;101297.56;5028981;28;20025;-60
2022/07/20 04:00:58;;;;;;;26.50;22.92;;;;;;;22.49;70.18;101298.50;5028823;28;20484;-60
2022/07/20 04:03:23;;;;;;;27.50;22.30;;;;;;;22.46;70.20;101305.56;5028261;28;20025;-61
2022/07/20 04:05:49;;;;;;;26.55;22.88;;;;;;;22.43;70.55;101309.13;5028433;28;20025;-61
2022/07/20 04:08:14;;;;;;;27.33;23.52;;;;;;;22.43;70.85;101311.78;5031722;28;20120;-61
2022/07/20 04:10:40;;;;;;;27.30;24.30;;;;;;;22.45;70.87;101309.13;5032575;28;20025;-61
2022/07/20 04:13:06;;;;;;;26.58;22.73;;;;;;;22.47;70.56;101315.25;5032199;28;20025;-60
2022/07/20 04:15:31;;;;;;;24.73;22.17;;;;;;;22.47;70.78;101308.19;5032360;28;20414;-61
2022/07/20 04:17:57;;;;;;;28.23;24.13;;;;;;;22.47;71.45;101318.75;5022328;28;20030;-60
2022/07/20 04:20:22;;;;;;;26.10;23.30;;;;;;;22.43;71.57;101317.91;5028002;28;20034;-60
2022/07/20 04:22:47;;;;;;;27.55;24.75;;;;;;;22.43;71.76;101327.59;5031821;28;20053;-60
2022/07/20 04:25:13;;;;;;;25.63;22.83;;;;;;;22.42;72.09;101334.66;5032343;28;20538;-61
2022/07/20 04:27:39;;;;;;;27.67;22.73;;;;;;;22.47;71.24;101333.72;5031954;28;20384;-60
2022/07/20 04:30:05;;;;;;;24.77;22.15;;;;;;;22.49;71.42;101324.88;5031092;28;20036;-60
2022/07/20 04:32:31;;;;;;;25.13;22.40;;;;;;;22.51;71.48;101323.13;5031390;28;20018;-61
2022/07/20 04:34:56;;;;;;;26.65;23.38;;;;;;;22.58;71.15;101336.25;5031377;28;20033;-60
2022/07/20 04:37:21;;;;;;;26.52;23.30;;;;;;;22.60;71.40;101334.47;5031192;28;20056;-61
2022/07/20 04:39:47;;;;;;;25.75;23.23;;;;;;;22.62;70.77;101337.97;5031187;28;20021;-60
2022/07/20 04:42:13;;;;;;;24.92;22.40;;;;;;;22.60;70.92;101347.66;5030953;28;20049;-61
2022/07/20 04:44:38;;;;;;;25.83;22.83;;;;;;;22.62;70.76;101343.25;5031496;28;20068;-61
2022/07/20 04:47:04;;;;;;;25.70;21.90;;;;;;;22.67;70.38;101346.75;5019746;28;20076;-60
2022/07/20 04:49:29;;;;;;;24.52;21.73;;;;;;;22.69;69.87;101350.25;5011206;28;20017;-61
2022/07/20 04:51:54;;;;;;;22.20;19.90;;;;;;;22.74;69.94;101358.13;5011395;28;20026;-60
2022/07/20 04:54:21;;;;;;;22.70;20.30;;;;;;;22.77;69.79;101361.59;5010655;28;20104;-60
2022/07/20 04:56:47;;;;;;;25.08;20.60;;;;;;;22.81;69.55;101353.66;5015494;28;20045;-60
2022/07/20 04:59:13;;;;;;;23.20;20.77;;;;;;;22.79;69.63;101358.97;5011688;28;20026;-61
2022/07/20 05:01:38;;;;;;;22.27;19.85;;;;;;;22.78;69.29;101366.00;5020830;28;20025;-61
2022/07/20 05:04:04;;;;;;;22.15;19.50;;;;;;;22.78;68.95;101366.00;5015565;28;20029;-60
2022/07/20 05:06:30;;;;;;;22.73;20.35;;;;;;;22.78;69.21;101371.28;5022172;28;20393;-60
2022/07/20 05:08:56;;;;;;;25.13;19.13;;;;;;;22.79;68.91;101362.44;5010202;28;20029;-60
2022/07/20 05:11:21;;;;;;;21.13;19.13;;;;;;;22.76;68.92;101362.50;5021397;28;20033;-60
2022/07/20 05:13:47;;;;;;;22.90;19.13;;;;;;;22.79;69.17;101353.69;5010478;28;20033;-60
2022/07/20 05:16:12;;;;;;;20.42;18.40;;;;;;;22.81;69.43;101357.16;5014170;28;20125;-60
2022/07/20 05:18:38;;;;;;;21.10;19.00;;;;;;;22.79;68.83;101356.31;5015492;28;20064;-60
2022/07/20 05:21:04;;;;;;;21.05;18.95;;;;;;;22.81;68.58;101353.66;5015730;28;20037;-61
2022/07/20 05:23:30;;;;;;;20.23;18.10;;;;;;;22.79;68.44;101364.25;5028699;28;20389;-61
2022/07/20 05:25:55;;;;;;;20.27;18.23;;;;;;;22.83;68.69;101358.00;5027599;28;20017;-61
2022/07/20 05:28:21;;;;;;;19.90;17.98;;;;;;;22.88;68.40;101366.75;5027922;28;20029;-60
2022/07/20 05:30:48;;;;;;;21.70;17.50;;;;;;;22.87;68.05;101374.69;5025690;28;20076;-61
2022/07/20 05:33:14;;;;;;;20.40;17.48;;;;;;;22.91;67.82;101387.88;5020747;28;20029;-60
2022/07/20 05:35:39;;;;;;;18.73;16.75;;;;;;;22.97;67.61;101399.25;5013809;28;20108;-60
2022/07/20 05:38:04;;;;;;;20.38;17.73;;;;;;;22.98;67.13;101403.63;5022240;28;20101;-60
2022/07/20 05:40:30;;;;;;;20.08;17.75;;;;;;;23.00;67.12;101408.03;5030099;28;20060;-60
2022/07/20 05:42:55;;;;;;;19.60;17.60;;;;;;;23.04;66.37;101406.22;5029872;28;20048;-60
2022/07/20 05:45:21;;;;;;;19.70;17.48;;;;;;;23.13;66.43;101415.81;5030033;28;20017;-60
2022/07/20 05:47:46;;;;;;;20.42;17.75;;;;;;;23.20;66.97;101424.53;5029684;28;20686;-60
2022/07/20 05:50:11;;;;;;;18.85;16.95;;;;;;;23.22;66.81;101436.84;5029201;28;20083;-60
2022/07/20 05:52:37;;;;;;;20.15;16.45;;;;;;;23.31;66.06;101437.63;5015056;28;20018;-60
2022/07/20 05:55:03;;;;;;;20.65;16.40;;;;;;;23.39;66.22;101435.75;5014951;28;20022;-61
2022/07/20 05:57:28;;;;;;;19.35;17.35;;;;;;;23.47;65.26;101439.22;5009988;28;20406;-61
2022/07/20 05:59:53;;;;;;;20.10;16.17;;;;;;;23.58;65.22;101443.50;5010219;28;20083;-60
2022/07/20 06:02:19;;;;;;;17.02;15.27;;;;;;;23.67;64.07;101446.03;5021487;28;20529;-60
2022/07/20 06:04:44;;;;;;;17.77;14.35;;;;;;;23.78;63.35;101450.28;5009253;28;20024;-60
2022/07/20 06:07:10;;;;;;;17.23;14.27;;;;;;;23.81;62.35;101466.09;5008593;28;20033;-60
2022/07/20 06:09:36;;;;;;;18.17;14.32;;;;;;;23.83;62.60;101464.31;5008310;28;20165;-60
2022/07/20 06:12:01;;;;;;;16.38;13.25;;;;;;;23.82;62.03;101471.38;5008309;28;20442;-60
2022/07/20 06:14:27;;;;;;;15.32;12.77;;;;;;;23.74;62.54;101470.63;5008449;28;20157;-60
2022/07/20 06:16:52;;;;;;;17.63;13.73;;;;;;;23.71;62.60;101475.94;5009980;28;20029;-60
2022/07/20 06:19:17;;;;;;;17.88;13.27;;;;;;;23.68;62.90;101473.31;5016232;28;20033;-60
2022/07/20 06:21:43;;;;;;;16.67;13.50;;;;;;;23.68;63.11;101490.09;5028252;28;20025;-61
2022/07/20 06:24:08;;;;;;;15.30;12.60;;;;;;;23.71;63.54;101500.59;5028693;28;20029;-60
2022/07/20 06:26:33;;;;;;;14.73;12.52;;;;;;;23.75;62.91;101507.63;5029089;28;20021;-59
2022/07/20 06:28:59;;;;;;;15.75;12.60;;;;;;;23.77;63.30;101506.72;5023401;28;20155;-61
2022/07/20 06:31:24;;;;;;;17.88;13.70;;;;;;;23.73;62.64;101514.69;5016367;28;20029;-60
2022/07/20 06:33:50;;;;;;;15.93;12.40;;;;;;;23.73;62.99;101513.81;5017275;28;20179;-60
2022/07/20 06:36:16;;;;;;;15.25;11.57;;;;;;;23.72;62.34;101514.72;5012360;28;20026;-61
2022/07/20 06:38:42;;;;;;;17.08;12.85;;;;;;;23.72;62.82;101528.84;5017000;28;20018;-61
2022/07/20 06:41:07;;;;;;;16.42;12.90;;;;;;;23.74;62.95;101544.69;5012206;28;20546;-61
2022/07/20 06:43:32;;;;;;;14.80;12.27;;;;;;;23.71;63.15;101545.56;5012694;28;20044;-60
2022/07/20 06:45:57;;;;;;;17.60;12.13;;;;;;;23.72;62.55;101554.41;5007199;28;20033;-59
2022/07/20 06:48:23;;;;;;;19.02;12.80;;;;;;;23.76;62.04;101561.41;5009861;28;20143;-61
2022/07/20 06:50:49;;;;;;;14.02;12.57;;;;;;;23.80;62.09;101578.13;5007897;28;20040;-61
2022/07/20 06:53:14;;;;;;;13.98;11.98;;;;;;;23.81;62.41;101566.63;5008774;28;20052;-60
2022/07/20 06:55:39;;;;;;;13.05;11.65;;;;;;;23.80;63.08;101583.41;5008524;28;20030;-60
2022/07/20 06:58:04;;;;;;;14.32;11.82;;;;;;;23.80;62.46;101578.13;5008315;28;20113;-61
2022/07/20 07:00:30;;;;;;;12.68;11.38;;;;;;;23.78;62.16;101570.22;5010466;28;20493;-61
2022/07/20 07:02:55;;;;;;;14.43;11.68;;;;;;;23.86;62.80;101578.03;5011177;28;20021;-60
2022/07/20 07:05:21;;;;;;;17.35;12.25;;;;;;;23.92;62.76;101577.97;5019258;28;20022;-61
2022/07/20 07:07:47;;;;;;;19.45;12.75;;;;;;;23.97;62.83;101569.97;5008820;28;20060;-61
2022/07/20 07:10:12;;;;;;;14.45;11.25;;;;;;;24.04;63.19;101578.69;5008911;28;20024;-61
2022/07/20 07:12:37;;;;;;;13.73;11.35;;;;;;;24.10;62.70;101590.09;5008822;28;20107;-61
2022/07/20 07:15:03;;;;;;;17.08;11.38;;;;;;;24.16;61.83;101586.47;5008433;28;20176;-60
2022/07/20 07:17:30;;;;;;;13.48;11.10;;;;;;;24.23;61.01;101574.94;5011258;28;20478;-61
2022/07/20 07:19:56;;;;;;;14.60;12.13;;;;;;;24.23;60.99;101567.00;5009631;28;20022;-60
2022/07/20 07:22:21;;;;;;;14.75;12.38;;;;;;;24.24;60.34;101578.47;5008037;28;20038;-61
2022/07/20 07:24:46;;;;;;;16.85;11.52;;;;;;;24.37;59.94;101584.47;5008173;28;20061;-61
2022/07/20 07:27:12;;;;;;;14.73;11.95;;;;;;;24.51;60.17;101586.91;5006814;28;20112;-61
2022/07/20 07:29:37;;;;;;;15.15;11.38;;;;;;;24.73;60.41;101591.00;5007687;28;20025;-60
2022/07/20 07:32:03;;;;;;;15.85;11.43;;;;;;;24.93;58.68;101615.41;5018998;28;20018;-61
2022/07/20 07:34:28;;;;;;;12.98;11.68;;;;;;;25.08;58.61;101617.88;5023195;28;20026;-60
2022/07/20 07:36:54;;;;;;;15.60;11.07;;;;;;;25.16;58.46;101618.59;5025465;28;20048;-60
2022/07/20 07:39:19;;;;;;;13.52;11.43;;;;;;;25.13;58.42;101632.78;5024830;28;20268;-60
2022/07/20 07:41:45;;;;;;;11.55;10.20;;;;;;;25.08;57.72;101634.63;5026947;28;20095;-60
2022/07/20 07:44:10;;;;;;;13.15;10.35;;;;;;;25.01;57.80;101640.91;5030589;28;20022;-60
2022/07/20 07:46:36;;;;;;;13.30;10.48;;;;;;;25.10;57.98;101648.72;5028790;28;20122;-61
2022/07/20 07:49:02;;;;;;;12.10;10.82;;;;;;;25.29;57.79;101651.09;5018445;28;20560;-61
2022/07/20 07:51:27;;;;;;;13.15;10.20;;;;;;;25.54;57.99;101655.94;5017710;28;20484;-60
2022/07/20 07:53:53;;;;;;;12.10;9.95;;;;;;;25.74;57.76;101654.72;5020522;28;20021;-61
2022/07/20 07:56:18;;;;;;;14.98;10.40;;;;;;;25.90;57.15;101656.16;5024603;28;20579;-61
2022/07/20 07:58:44;;;;;;;12.00;10.07;;;;;;;26.00;56.16;101648.03;5012707;28;20105;-61
2022/07/20 08:01:09;;;;;;;10.88;9.70;;;;;;;26.13;55.91;101644.22;5012469;28;20022;-61
2022/07/20 08:03:35;;;;;;;13.25;9.25;;;;;;;26.24;55.93;101641.34;5027445;28;20026;-60
2022/07/20 08:06:00;;;;;;;11.75;9.52;;;;;;;26.37;55.33;101633.13;5014417;28;20121;-61
2022/07/20 08:08:26;;;;;;;11.35;9.35;;;;;;;26.50;54.45;101623.06;5016966;28;20084;-60
2022/07/20 08:10:51;;;;;;;11.48;9.82;;;;;;;26.69;53.88;101615.56;5019449;28;20502;-60
2022/07/20 08:13:16;;;;;;;14.55;11.10;;;;;;;26.93;53.29;101615.00;5009377;28;20010;-61
2022/07/20 08:15:42;;;;;;;10.43;8.50;;;;;;;27.21;54.11;101614.31;5016828;28;20018;-60
2022/07/20 08:18:07;;;;;;;12.57;9.20;;;;;;;27.45;52.14;101606.59;5021469;28;20036;-59
2022/07/20 08:20:34;;;;;;;12.15;8.65;;;;;;;27.67;51.53;101605.97;5021353;28;20026;-60
2022/07/20 08:22:59;;;;;;;14.27;9.35;;;;;;;27.87;50.81;101605.44;5011055;28;20521;-61
2022/07/20 08:25:25;;;;;;;11.13;8.85;;;;;;;28.05;50.26;101598.72;5012237;28;20105;-60
2022/07/20 08:27:51;;;;;;;10.18;9.15;;;;;;;28.13;49.16;101610.91;5027170;28;20252;-61
2022/07/20 08:30:17;;;;;;;12.77;8.35;;;;;;;28.17;50.18;101615.25;5027476;28;20047;-60
2022/07/20 08:32:42;;;;;;;11.88;8.27;;;;;;;28.34;51.10;101621.81;5025425;28;20528;-61
2022/07/20 08:35:10;;;;;;;11.27;8.50;;;;;;;28.26;48.64;101630.91;5024763;28;20114;-61
2022/07/20 08:37:36;;;;;;;11.30;8.85;;;;;;;28.20;48.61;101636.44;5013910;28;20025;-60
2022/07/20 08:40:01;;;;;;;11.35;8.93;;;;;;;28.19;48.56;101637.34;5010316;28;20053;-61
2022/07/20 08:42:26;;;;;;;9.65;8.70;;;;;;;28.00;47.87;101640.59;5010853;28;20048;-61
2022/07/20 08:44:52;;;;;;;10.50;8.77;;;;;;;27.81;48.57;101651.75;5014895;28;20014;-61
2022/07/20 08:47:21;;;;;;;12.05;9.00;;;;;;;27.75;49.16;101654.59;5015483;28;20056;-60
2022/07/20 08:49:49;;;;;;;9.70;8.68;;;;;;;27.82;49.20;101647.31;5012207;28;20035;-60
2022/07/20 08:52:15;;;;;;;11.43;9.57;;;;;;;28.04;48.62;101642.25;5012473;28;20040;-60
2022/07/20 08:54:41;;;;;;;11.95;8.45;;;;;;;28.15;48.99;101639.22;5015618;28;20044;-60
2022/07/20 08:57:11;;;;;;;11.05;9.35;;;;;;;28.32;46.86;101631.66;5018399;28;20030;-60
2022/07/20 08:59:37;;;;;;;12.77;8.85;;;;;;;28.61;47.74;101619.25;5011479;28;20083;-61
2022/07/20 09:02:07;;;;;;;10.52;8.93;;;;;;;28.83;48.27;101591.88;5016679;28;20025;-61
2022/07/20 09:04:47;;;;;;;11.07;8.93;;;;;;;28.99;47.96;101598.47;5026181;28;20028;-61
2022/07/20 09:07:13;;;;;;;;;;;;;;;29.01;46.79;101603.75;5029508;28;20461;-60
2022/07/20 09:09:38;;;;;;;9.70;8.70;;;;;;;28.84;45.99;101623.81;5028581;28;19913;-61
2022/07/20 09:12:04;;;;;;;13.48;9.18;;;;;;;28.64;46.78;101641.34;5026398;28;20036;-61
2022/07/20 09:14:41;;;;;;;12.80;9.35;;;;;;;28.58;48.84;101656.66;5027304;28;20041;-61
2022/07/20 09:17:21;;;;;;;11.77;9.25;;;;;;;28.57;47.54;101676.25;5022046;28;20030;-61
2022/07/20 09:20:00;;;;;;;11.20;9.02;;;;;;;28.63;47.50;101676.03;5020990;28;20492;-61
2022/07/20 09:22:37;;;;;;;9.05;8.15;;;;;;;28.59;48.05;101674.38;5029310;28;20067;-61
2022/07/20 09:25:07;;;;;;;10.95;9.05;;;;;;;28.51;47.06;101701.28;5021888;28;20020;-61
2022/07/20 09:27:34;;;;;;;9.50;8.53;;;;;;;28.66;47.22;101718.59;5010290;28;20041;-61
2022/07/20 09:30:10;;;;;;;10.63;8.93;;;;;;;28.88;46.71;101720.56;5017161;28;20315;-61
2022/07/20 09:32:48;;;;;;;12.20;8.48;;;;;;;29.10;47.71;101710.13;5009934;28;20036;-61
2022/07/20 09:35:13;;;;;;;9.65;8.43;;;;;;;29.17;46.58;101713.47;5015990;28;20022;-61
2022/07/20 09:37:38;;;;;;;11.35;8.75;;;;;;;29.15;46.57;101698.41;5023758;28;20072;-61
2022/07/20 09:40:05;;;;;;;9.40;8.43;;;;;;;29.08;46.89;101711.97;5009312;28;20033;-59
2022/07/20 09:42:41;;;;;;;12.05;8.48;;;;;;;29.05;46.09;101703.19;5010332;28;20507;-61
2022/07/20 09:45:26;;;;;;;16.58;9.65;;;;;;;29.12;47.17;101694.06;5019491;28;20489;-60
2022/07/20 09:48:06;;;;;;;11.95;8.38;;;;;;;29.20;45.35;101688.47;5028580;28;20433;-61
2022/07/20 09:50:38;;;;;;;9.55;8.43;;;;;;;29.43;46.49;101695.69;5022547;28;20162;-61
2022/07/20 09:53:04;;;;;;;10.80;8.90;;;;;;;29.63;45.79;101683.47;5024157;28;20029;-61
2022/07/20 09:55:31;;;;;;;11.48;9.00;;;;;;;29.93;47.09;101683.28;5025133;28;20461;-61
2022/07/20 09:57:57;;;;;;;12.85;9.63;;;;;;;29.92;44.60;101675.31;5023785;28;20775;-60
2022/07/20 10:00:22;;;;;;;11.05;8.25;;;;;;;29.90;43.62;101666.50;5013705;28;20505;-61
2022/07/20 10:02:50;;;;;;;12.60;9.32;;;;;;;29.89;43.68;101673.66;5008671;28;20040;-61
2022/07/20 10:05:18;;;;;;;9.35;7.93;;;;;;;29.90;43.82;101688.72;5006818;28;20037;-60
2022/07/20 10:07:44;;;;;;;11.10;8.27;;;;;;;29.88;43.38;101687.91;5007336;28;20402;-61
2022/07/20 10:10:12;;;;;;;10.05;8.10;;;;;;;29.94;45.13;101693.03;5007512;28;20022;-61
2022/07/20 10:12:38;;;;;;;9.93;8.82;;;;;;;29.77;43.81;101706.13;5009249;28;20030;-60
2022/07/20 10:15:10;;;;;;;9.82;7.78;;;;;;;29.63;44.21;101703.97;5008489;28;20029;-60
2022/07/20 10:17:36;;;;;;;9.25;7.00;;;;;;;29.62;43.46;101711.09;5009078;28;20049;-60
2022/07/20 10:20:02;;;;;;;8.13;6.32;;;;;;;29.57;43.60;101705.91;5021663;28;20022;-61
2022/07/20 10:22:28;;;;;;;8.23;6.80;;;;;;;29.69;44.58;101704.63;5017376;28;20037;-60
2022/07/20 10:25:14;;;;;;;8.43;7.60;;;;;;;29.68;44.06;101702.84;5009509;28;20014;-60
2022/07/20 10:27:39;;;;;;;10.52;6.97;;;;;;;29.51;43.82;101694.53;5007308;28;20036;-61
2022/07/20 10:30:16;;;;;;;8.55;7.07;;;;;;;29.21;44.68;101700.91;5007102;28;20021;-61
2022/07/20 10:32:57;;;;;;;9.80;7.10;;;;;;;28.92;45.72;101695.56;5009744;28;20049;-61
2022/07/20 10:35:31;;;;;;;11.02;7.05;;;;;;;28.80;45.16;101695.97;5017790;28;20509;-61
2022/07/20 10:37:57;;;;;;;11.00;7.25;;;;;;;28.99;45.50;101694.47;5008723;28;20037;-61
2022/07/20 10:40:24;;;;;;;9.57;7.13;;;;;;;29.29;46.05;101697.97;5033424;28;20505;-60
2022/07/20 10:43:10;;;;;;;10.63;7.10;;;;;;;29.57;46.14;101689.00;5009092;28;20548;-61
2022/07/20 10:45:35;;;;;;;9.38;7.20;;;;;;;29.79;44.26;101681.09;5014403;28;20022;-61
2022/07/20 10:48:15;;;;;;;9.13;7.05;;;;;;;29.84;45.17;101688.97;5007885;28;20040;-60
2022/07/20 10:50:42;;;;;;;9.80;7.38;;;;;;;29.96;45.24;101680.50;5007542;28;20018;-60
2022/07/20 10:53:11;;;;;;;12.50;8.38;;;;;;;29.99;43.98;101676.81;5007259;28;20021;-61
2022/07/20 10:55:36;;;;;;;8.35;7.40;;;;;;;29.85;43.50;101672.00;5008245;28;20033;-61
2022/07/20 10:58:16;;;;;;;9.70;6.47;;;;;;;29.93;45.42;101675.28;5009562;28;20026;-61
2022/07/20 11:00:44;;;;;;;7.53;6.65;;;;;;;29.99;44.01;101678.66;5007182;28;20029;-61
2022/07/20 11:03:25;;;;;;;7.82;7.07;;;;;;;29.94;43.06;101687.69;5009795;28;20052;-61
2022/07/20 11:06:13;;;;;;;8.85;6.60;;;;;;;30.06;44.70;101688.19;5008594;28;20333;-60
2022/07/20 11:08:41;;;;;;;8.73;7.70;;;;;;;30.15;44.10;101689.63;5010223;28;20347;-60
2022/07/20 11:11:12;;;;;;;8.20;7.40;;;;;;;30.31;43.60;101695.28;5009391;28;20441;-61
2022/07/20 11:13:38;;;;;;;7.05;6.32;;;;;;;30.43;44.61;101683.25;5007135;28;20466;-61
2022/07/20 11:16:03;;;;;;;9.00;6.55;;;;;;;30.52;43.71;101687.34;5010679;28;20025;-61
2022/07/20 11:18:31;;;;;;;10.38;7.25;;;;;;;30.52;42.51;101673.97;5006690;28;20088;-61